sensor_id;sensor_type;location;lat;lon;timestamp;P1;durP1;ratioP1;P2;durP2;ratioP2
40244;SDS011;25963;42.694;23.600;2023-05-07T00:01:31;20.90;;;11.25;;
40244;SDS011;25963;42.694;23.600;2023-05-07T00:03:57;16.50;;;10.48;;
40244;SDS011;25963;42.694;23.600;2023-05-07T00:06:22;9.50;;;6.88;;
40244;SDS011;25963;42.694;23.600;2023-05-07T00:08:48;10.38;;;7.35;;
40244;SDS011;25963;42.694;23.600;2023-05-07T00:11:13;29.80;;;18.38;;
40244;SDS011;25963;42.694;23.600;2023-05-07T00:13:39;20.83;;;11.80;;
40244;SDS011;25963;42.694;23.600;2023-05-07T00:16:04;15.48;;;9.68;;
40244;SDS011;25963;42.694;23.600;2023-05-07T00:18:30;11.25;;;7.43;;
40244;SDS011;25963;42.694;23.600;2023-05-07T00:20:55;11.02;;;8.00;;
40244;SDS011;25963;42.694;23.600;2023-05-07T00:23:21;12.00;;;7.03;;
40244;SDS011;25963;42.694;23.600;2023-05-07T00:25:47;9.25;;;6.85;;
40244;SDS011;25963;42.694;23.600;2023-05-07T00:28:13;8.30;;;6.55;;
40244;SDS011;25963;42.694;23.600;2023-05-07T00:30:38;12.40;;;8.18;;
40244;SDS011;25963;42.694;23.600;2023-05-07T00:33:04;10.30;;;7.85;;
40244;SDS011;25963;42.694;23.600;2023-05-07T00:35:29;7.93;;;7.13;;
40244;SDS011;25963;42.694;23.600;2023-05-07T00:37:55;11.63;;;8.38;;
40244;SDS011;25963;42.694;23.600;2023-05-07T00:40:21;13.70;;;8.07;;
40244;SDS011;25963;42.694;23.600;2023-05-07T00:42:46;11.15;;;7.53;;
40244;SDS011;25963;42.694;23.600;2023-05-07T00:45:12;10.23;;;7.35;;
40244;SDS011;25963;42.694;23.600;2023-05-07T00:47:42;11.80;;;7.05;;
40244;SDS011;25963;42.694;23.600;2023-05-07T00:50:08;10.20;;;7.68;;
40244;SDS011;25963;42.694;23.600;2023-05-07T00:52:36;8.80;;;6.80;;
40244;SDS011;25963;42.694;23.600;2023-05-07T00:55:04;12.02;;;7.50;;
40244;SDS011;25963;42.694;23.600;2023-05-07T00:57:40;9.82;;;6.50;;
40244;SDS011;25963;42.694;23.600;2023-05-07T01:00:07;10.48;;;6.78;;
40244;SDS011;25963;42.694;23.600;2023-05-07T01:02:35;9.13;;;7.05;;
40244;SDS011;25963;42.694;23.600;2023-05-07T01:05:01;11.63;;;7.43;;
40244;SDS011;25963;42.694;23.600;2023-05-07T01:07:29;9.20;;;6.55;;
40244;SDS011;25963;42.694;23.600;2023-05-07T01:09:54;11.80;;;7.53;;
40244;SDS011;25963;42.694;23.600;2023-05-07T01:12:20;10.05;;;7.45;;
40244;SDS011;25963;42.694;23.600;2023-05-07T01:14:47;8.45;;;7.03;;
40244;SDS011;25963;42.694;23.600;2023-05-07T01:17:14;8.63;;;7.00;;
40244;SDS011;25963;42.694;23.600;2023-05-07T01:19:40;13.25;;;8.77;;
40244;SDS011;25963;42.694;23.600;2023-05-07T01:22:09;9.77;;;8.40;;
40244;SDS011;25963;42.694;23.600;2023-05-07T01:24:36;8.30;;;7.40;;
40244;SDS011;25963;42.694;23.600;2023-05-07T01:27:03;10.27;;;7.20;;
40244;SDS011;25963;42.694;23.600;2023-05-07T01:29:29;10.35;;;7.50;;
40244;SDS011;25963;42.694;23.600;2023-05-07T01:31:56;13.07;;;8.82;;
40244;SDS011;25963;42.694;23.600;2023-05-07T01:34:25;10.38;;;7.72;;
40244;SDS011;25963;42.694;23.600;2023-05-07T01:36:52;13.23;;;8.15;;
40244;SDS011;25963;42.694;23.600;2023-05-07T01:39:21;9.77;;;7.93;;
40244;SDS011;25963;42.694;23.600;2023-05-07T01:41:49;11.15;;;8.82;;
40244;SDS011;25963;42.694;23.600;2023-05-07T01:44:15;10.82;;;9.18;;
40244;SDS011;25963;42.694;23.600;2023-05-07T01:46:42;13.40;;;10.02;;
40244;SDS011;25963;42.694;23.600;2023-05-07T01:49:08;14.65;;;10.85;;
40244;SDS011;25963;42.694;23.600;2023-05-07T01:51:34;19.15;;;12.70;;
40244;SDS011;25963;42.694;23.600;2023-05-07T01:54:00;14.70;;;11.65;;
40244;SDS011;25963;42.694;23.600;2023-05-07T01:56:26;18.60;;;12.02;;
40244;SDS011;25963;42.694;23.600;2023-05-07T01:58:51;17.98;;;12.07;;
40244;SDS011;25963;42.694;23.600;2023-05-07T02:01:17;18.00;;;11.80;;
40244;SDS011;25963;42.694;23.600;2023-05-07T02:03:43;16.75;;;11.77;;
40244;SDS011;25963;42.694;23.600;2023-05-07T02:06:09;14.45;;;11.20;;
40244;SDS011;25963;42.694;23.600;2023-05-07T02:08:34;16.15;;;12.63;;
40244;SDS011;25963;42.694;23.600;2023-05-07T02:11:00;14.85;;;11.82;;
40244;SDS011;25963;42.694;23.600;2023-05-07T02:13:30;14.60;;;11.80;;
40244;SDS011;25963;42.694;23.600;2023-05-07T02:18:23;15.48;;;10.32;;
40244;SDS011;25963;42.694;23.600;2023-05-07T02:20:48;14.43;;;11.30;;
40244;SDS011;25963;42.694;23.600;2023-05-07T02:23:14;16.63;;;12.20;;
40244;SDS011;25963;42.694;23.600;2023-05-07T02:25:39;14.05;;;11.57;;
40244;SDS011;25963;42.694;23.600;2023-05-07T02:28:05;16.33;;;11.63;;
40244;SDS011;25963;42.694;23.600;2023-05-07T02:30:31;17.67;;;12.85;;
40244;SDS011;25963;42.694;23.600;2023-05-07T02:32:56;19.55;;;14.00;;
40244;SDS011;25963;42.694;23.600;2023-05-07T02:35:23;18.05;;;12.52;;
40244;SDS011;25963;42.694;23.600;2023-05-07T02:37:49;18.33;;;13.45;;
40244;SDS011;25963;42.694;23.600;2023-05-07T02:40:15;16.75;;;13.20;;
40244;SDS011;25963;42.694;23.600;2023-05-07T02:42:40;17.70;;;13.75;;
40244;SDS011;25963;42.694;23.600;2023-05-07T02:45:06;16.88;;;13.25;;
40244;SDS011;25963;42.694;23.600;2023-05-07T02:47:32;22.50;;;13.18;;
40244;SDS011;25963;42.694;23.600;2023-05-07T02:49:57;16.48;;;13.13;;
40244;SDS011;25963;42.694;23.600;2023-05-07T02:52:22;17.90;;;13.98;;
40244;SDS011;25963;42.694;23.600;2023-05-07T02:54:48;19.05;;;13.07;;
40244;SDS011;25963;42.694;23.600;2023-05-07T02:57:13;16.08;;;12.00;;
40244;SDS011;25963;42.694;23.600;2023-05-07T02:59:39;18.50;;;12.68;;
40244;SDS011;25963;42.694;23.600;2023-05-07T03:02:05;17.38;;;12.02;;
40244;SDS011;25963;42.694;23.600;2023-05-07T03:04:30;17.42;;;13.65;;
40244;SDS011;25963;42.694;23.600;2023-05-07T03:06:56;18.10;;;13.23;;
40244;SDS011;25963;42.694;23.600;2023-05-07T03:09:21;15.27;;;11.80;;
40244;SDS011;25963;42.694;23.600;2023-05-07T03:11:46;15.63;;;13.00;;
40244;SDS011;25963;42.694;23.600;2023-05-07T03:14:12;17.45;;;12.60;;
40244;SDS011;25963;42.694;23.600;2023-05-07T03:16:37;16.73;;;12.05;;
40244;SDS011;25963;42.694;23.600;2023-05-07T03:19:03;18.92;;;12.82;;
40244;SDS011;25963;42.694;23.600;2023-05-07T03:21:29;15.75;;;12.57;;
40244;SDS011;25963;42.694;23.600;2023-05-07T03:23:55;18.85;;;13.82;;
40244;SDS011;25963;42.694;23.600;2023-05-07T03:26:21;16.55;;;11.80;;
40244;SDS011;25963;42.694;23.600;2023-05-07T03:28:46;17.25;;;12.65;;
40244;SDS011;25963;42.694;23.600;2023-05-07T03:31:12;16.92;;;13.45;;
40244;SDS011;25963;42.694;23.600;2023-05-07T03:33:39;16.85;;;12.50;;
40244;SDS011;25963;42.694;23.600;2023-05-07T03:36:16;19.55;;;12.88;;
40244;SDS011;25963;42.694;23.600;2023-05-07T03:38:41;23.30;;;14.95;;
40244;SDS011;25963;42.694;23.600;2023-05-07T03:41:06;16.55;;;13.73;;
40244;SDS011;25963;42.694;23.600;2023-05-07T03:43:32;16.85;;;13.25;;
40244;SDS011;25963;42.694;23.600;2023-05-07T03:45:57;18.50;;;13.63;;
40244;SDS011;25963;42.694;23.600;2023-05-07T03:48:23;17.70;;;14.20;;
40244;SDS011;25963;42.694;23.600;2023-05-07T03:50:48;17.45;;;12.43;;
40244;SDS011;25963;42.694;23.600;2023-05-07T03:53:13;17.40;;;13.80;;
40244;SDS011;25963;42.694;23.600;2023-05-07T03:55:39;18.90;;;13.15;;
40244;SDS011;25963;42.694;23.600;2023-05-07T03:58:05;17.58;;;13.23;;
40244;SDS011;25963;42.694;23.600;2023-05-07T04:00:30;15.13;;;12.63;;
40244;SDS011;25963;42.694;23.600;2023-05-07T04:02:58;15.32;;;12.82;;
40244;SDS011;25963;42.694;23.600;2023-05-07T04:05:24;17.00;;;12.90;;
40244;SDS011;25963;42.694;23.600;2023-05-07T04:07:50;14.45;;;11.98;;
40244;SDS011;25963;42.694;23.600;2023-05-07T04:10:15;14.77;;;12.10;;
40244;SDS011;25963;42.694;23.600;2023-05-07T04:12:40;16.23;;;11.20;;
40244;SDS011;25963;42.694;23.600;2023-05-07T04:15:06;15.50;;;12.85;;
40244;SDS011;25963;42.694;23.600;2023-05-07T04:17:32;15.23;;;11.68;;
40244;SDS011;25963;42.694;23.600;2023-05-07T04:20:01;17.67;;;9.70;;
40244;SDS011;25963;42.694;23.600;2023-05-07T04:22:27;11.32;;;9.30;;
40244;SDS011;25963;42.694;23.600;2023-05-07T04:24:52;12.65;;;9.10;;
40244;SDS011;25963;42.694;23.600;2023-05-07T04:32:35;10.43;;;8.60;;
40244;SDS011;25963;42.694;23.600;2023-05-07T04:35:02;9.23;;;7.75;;
40244;SDS011;25963;42.694;23.600;2023-05-07T04:37:27;8.45;;;7.55;;
40244;SDS011;25963;42.694;23.600;2023-05-07T04:39:53;11.57;;;7.97;;
40244;SDS011;25963;42.694;23.600;2023-05-07T04:42:27;7.88;;;7.07;;
40244;SDS011;25963;42.694;23.600;2023-05-07T04:44:53;9.10;;;7.70;;
40244;SDS011;25963;42.694;23.600;2023-05-07T04:47:19;8.30;;;7.47;;
40244;SDS011;25963;42.694;23.600;2023-05-07T04:49:44;8.30;;;7.50;;
40244;SDS011;25963;42.694;23.600;2023-05-07T04:52:10;7.97;;;7.18;;
40244;SDS011;25963;42.694;23.600;2023-05-07T04:54:35;8.82;;;8.05;;
40244;SDS011;25963;42.694;23.600;2023-05-07T04:57:00;11.40;;;8.00;;
40244;SDS011;25963;42.694;23.600;2023-05-07T04:59:28;11.18;;;9.45;;
40244;SDS011;25963;42.694;23.600;2023-05-07T05:01:54;13.60;;;8.82;;
40244;SDS011;25963;42.694;23.600;2023-05-07T05:04:19;14.25;;;9.82;;
40244;SDS011;25963;42.694;23.600;2023-05-07T05:06:45;10.50;;;9.18;;
40244;SDS011;25963;42.694;23.600;2023-05-07T05:09:10;11.55;;;9.70;;
40244;SDS011;25963;42.694;23.600;2023-05-07T05:11:36;12.30;;;8.98;;
40244;SDS011;25963;42.694;23.600;2023-05-07T05:14:01;10.80;;;8.63;;
40244;SDS011;25963;42.694;23.600;2023-05-07T05:16:27;10.45;;;8.10;;
40244;SDS011;25963;42.694;23.600;2023-05-07T05:19:10;7.85;;;7.05;;
40244;SDS011;25963;42.694;23.600;2023-05-07T05:21:36;9.27;;;8.38;;
40244;SDS011;25963;42.694;23.600;2023-05-07T05:24:01;9.05;;;8.05;;
40244;SDS011;25963;42.694;23.600;2023-05-07T05:26:27;29.85;;;25.17;;
40244;SDS011;25963;42.694;23.600;2023-05-07T05:28:52;16.65;;;11.38;;
40244;SDS011;25963;42.694;23.600;2023-05-07T05:31:18;10.55;;;6.95;;
40244;SDS011;25963;42.694;23.600;2023-05-07T05:33:43;7.78;;;6.97;;
40244;SDS011;25963;42.694;23.600;2023-05-07T05:36:09;9.77;;;6.55;;
40244;SDS011;25963;42.694;23.600;2023-05-07T05:38:35;23.73;;;14.93;;
40244;SDS011;25963;42.694;23.600;2023-05-07T05:41:01;14.48;;;9.73;;
40244;SDS011;25963;42.694;23.600;2023-05-07T05:43:26;11.68;;;7.97;;
40244;SDS011;25963;42.694;23.600;2023-05-07T05:45:52;19.83;;;13.88;;
40244;SDS011;25963;42.694;23.600;2023-05-07T05:48:17;9.32;;;6.35;;
40244;SDS011;25963;42.694;23.600;2023-05-07T05:50:43;11.10;;;8.65;;
40244;SDS011;25963;42.694;23.600;2023-05-07T05:53:08;7.80;;;6.70;;
40244;SDS011;25963;42.694;23.600;2023-05-07T05:55:34;7.20;;;6.03;;
40244;SDS011;25963;42.694;23.600;2023-05-07T05:58:02;11.45;;;7.10;;
40244;SDS011;25963;42.694;23.600;2023-05-07T06:00:28;6.57;;;5.32;;
40244;SDS011;25963;42.694;23.600;2023-05-07T06:02:54;17.75;;;10.88;;
40244;SDS011;25963;42.694;23.600;2023-05-07T06:05:20;8.55;;;5.40;;
40244;SDS011;25963;42.694;23.600;2023-05-07T06:07:45;7.25;;;6.22;;
40244;SDS011;25963;42.694;23.600;2023-05-07T06:10:11;7.45;;;6.55;;
40244;SDS011;25963;42.694;23.600;2023-05-07T06:12:37;8.95;;;5.55;;
40244;SDS011;25963;42.694;23.600;2023-05-07T06:15:02;6.70;;;5.55;;
40244;SDS011;25963;42.694;23.600;2023-05-07T06:17:28;8.38;;;6.28;;
40244;SDS011;25963;42.694;23.600;2023-05-07T06:19:53;8.43;;;6.18;;
40244;SDS011;25963;42.694;23.600;2023-05-07T06:22:19;7.97;;;6.32;;
40244;SDS011;25963;42.694;23.600;2023-05-07T06:24:44;6.93;;;5.85;;
40244;SDS011;25963;42.694;23.600;2023-05-07T06:27:10;10.50;;;7.10;;
40244;SDS011;25963;42.694;23.600;2023-05-07T06:29:35;9.50;;;7.13;;
40244;SDS011;25963;42.694;23.600;2023-05-07T06:32:10;7.88;;;7.05;;
40244;SDS011;25963;42.694;23.600;2023-05-07T06:34:37;7.85;;;6.70;;
40244;SDS011;25963;42.694;23.600;2023-05-07T06:37:03;8.30;;;6.45;;
40244;SDS011;25963;42.694;23.600;2023-05-07T06:39:29;7.78;;;6.80;;
40244;SDS011;25963;42.694;23.600;2023-05-07T06:41:54;7.82;;;7.00;;
40244;SDS011;25963;42.694;23.600;2023-05-07T06:44:20;8.60;;;7.63;;
40244;SDS011;25963;42.694;23.600;2023-05-07T06:46:45;7.78;;;7.07;;
40244;SDS011;25963;42.694;23.600;2023-05-07T06:49:12;10.10;;;7.53;;
40244;SDS011;25963;42.694;23.600;2023-05-07T06:51:38;8.63;;;6.85;;
40244;SDS011;25963;42.694;23.600;2023-05-07T06:54:03;8.20;;;7.10;;
40244;SDS011;25963;42.694;23.600;2023-05-07T06:56:29;9.68;;;7.18;;
40244;SDS011;25963;42.694;23.600;2023-05-07T06:58:55;10.48;;;7.10;;
40244;SDS011;25963;42.694;23.600;2023-05-07T07:01:21;11.48;;;7.18;;
40244;SDS011;25963;42.694;23.600;2023-05-07T07:03:46;13.32;;;9.48;;
40244;SDS011;25963;42.694;23.600;2023-05-07T07:06:12;8.30;;;7.50;;
40244;SDS011;25963;42.694;23.600;2023-05-07T07:08:37;9.73;;;7.57;;
40244;SDS011;25963;42.694;23.600;2023-05-07T07:11:04;10.15;;;7.70;;
40244;SDS011;25963;42.694;23.600;2023-05-07T07:13:30;13.55;;;8.35;;
40244;SDS011;25963;42.694;23.600;2023-05-07T07:15:55;9.05;;;7.57;;
40244;SDS011;25963;42.694;23.600;2023-05-07T07:18:20;9.52;;;7.60;;
40244;SDS011;25963;42.694;23.600;2023-05-07T07:20:46;9.43;;;7.72;;
40244;SDS011;25963;42.694;23.600;2023-05-07T07:23:11;12.48;;;7.57;;
40244;SDS011;25963;42.694;23.600;2023-05-07T07:25:37;11.90;;;8.30;;
40244;SDS011;25963;42.694;23.600;2023-05-07T07:28:03;8.30;;;7.40;;
40244;SDS011;25963;42.694;23.600;2023-05-07T07:30:28;8.90;;;8.00;;
40244;SDS011;25963;42.694;23.600;2023-05-07T07:32:53;9.95;;;8.95;;
40244;SDS011;25963;42.694;23.600;2023-05-07T07:35:20;10.93;;;8.52;;
40244;SDS011;25963;42.694;23.600;2023-05-07T07:37:46;9.70;;;8.70;;
40244;SDS011;25963;42.694;23.600;2023-05-07T07:40:14;10.75;;;7.70;;
40244;SDS011;25963;42.694;23.600;2023-05-07T07:42:40;11.18;;;8.63;;
40244;SDS011;25963;42.694;23.600;2023-05-07T07:45:05;10.88;;;8.55;;
40244;SDS011;25963;42.694;23.600;2023-05-07T07:47:31;8.73;;;7.72;;
40244;SDS011;25963;42.694;23.600;2023-05-07T07:49:57;8.48;;;7.20;;
40244;SDS011;25963;42.694;23.600;2023-05-07T07:52:22;8.70;;;6.80;;
40244;SDS011;25963;42.694;23.600;2023-05-07T07:54:48;7.35;;;6.65;;
40244;SDS011;25963;42.694;23.600;2023-05-07T07:57:13;9.13;;;7.30;;
40244;SDS011;25963;42.694;23.600;2023-05-07T07:59:39;14.07;;;7.30;;
40244;SDS011;25963;42.694;23.600;2023-05-07T08:02:05;9.20;;;7.43;;
40244;SDS011;25963;42.694;23.600;2023-05-07T08:04:30;10.07;;;7.03;;
40244;SDS011;25963;42.694;23.600;2023-05-07T08:06:58;9.30;;;6.32;;
40244;SDS011;25963;42.694;23.600;2023-05-07T08:09:23;7.22;;;6.00;;
40244;SDS011;25963;42.694;23.600;2023-05-07T08:11:49;9.55;;;6.03;;
40244;SDS011;25963;42.694;23.600;2023-05-07T08:14:14;7.65;;;6.30;;
40244;SDS011;25963;42.694;23.600;2023-05-07T08:16:40;5.78;;;4.85;;
40244;SDS011;25963;42.694;23.600;2023-05-07T08:19:06;4.97;;;3.83;;
40244;SDS011;25963;42.694;23.600;2023-05-07T08:21:31;6.95;;;5.00;;
40244;SDS011;25963;42.694;23.600;2023-05-07T08:23:57;5.68;;;4.57;;
40244;SDS011;25963;42.694;23.600;2023-05-07T08:26:22;5.07;;;4.50;;
40244;SDS011;25963;42.694;23.600;2023-05-07T08:28:48;10.80;;;5.88;;
40244;SDS011;25963;42.694;23.600;2023-05-07T08:31:13;9.70;;;8.23;;
40244;SDS011;25963;42.694;23.600;2023-05-07T08:33:39;6.88;;;6.15;;
40244;SDS011;25963;42.694;23.600;2023-05-07T08:36:05;14.40;;;7.97;;
40244;SDS011;25963;42.694;23.600;2023-05-07T08:38:30;7.90;;;5.07;;
40244;SDS011;25963;42.694;23.600;2023-05-07T08:40:56;6.65;;;4.30;;
40244;SDS011;25963;42.694;23.600;2023-05-07T08:43:22;7.55;;;4.20;;
40244;SDS011;25963;42.694;23.600;2023-05-07T08:45:55;5.55;;;3.70;;
40244;SDS011;25963;42.694;23.600;2023-05-07T08:48:27;8.57;;;3.70;;
40244;SDS011;25963;42.694;23.600;2023-05-07T08:50:57;5.40;;;3.65;;
40244;SDS011;25963;42.694;23.600;2023-05-07T08:53:23;10.38;;;4.63;;
40244;SDS011;25963;42.694;23.600;2023-05-07T08:55:48;6.18;;;4.50;;
40244;SDS011;25963;42.694;23.600;2023-05-07T08:58:14;10.88;;;5.03;;
40244;SDS011;25963;42.694;23.600;2023-05-07T09:00:40;6.43;;;4.53;;
40244;SDS011;25963;42.694;23.600;2023-05-07T09:03:07;7.05;;;5.00;;
40244;SDS011;25963;42.694;23.600;2023-05-07T09:05:32;17.67;;;7.03;;
40244;SDS011;25963;42.694;23.600;2023-05-07T09:08:04;4.90;;;3.47;;
40244;SDS011;25963;42.694;23.600;2023-05-07T09:10:32;10.68;;;6.35;;
40244;SDS011;25963;42.694;23.600;2023-05-07T09:12:58;6.13;;;4.78;;
40244;SDS011;25963;42.694;23.600;2023-05-07T09:15:24;5.25;;;4.72;;
40244;SDS011;25963;42.694;23.600;2023-05-07T09:17:50;8.38;;;4.82;;
40244;SDS011;25963;42.694;23.600;2023-05-07T09:20:16;6.40;;;4.57;;
40244;SDS011;25963;42.694;23.600;2023-05-07T09:22:43;8.85;;;4.20;;
40244;SDS011;25963;42.694;23.600;2023-05-07T09:25:09;9.35;;;5.07;;
40244;SDS011;25963;42.694;23.600;2023-05-07T09:27:35;5.60;;;5.10;;
40244;SDS011;25963;42.694;23.600;2023-05-07T09:30:07;7.97;;;4.03;;
40244;SDS011;25963;42.694;23.600;2023-05-07T09:32:36;5.93;;;4.45;;
40244;SDS011;25963;42.694;23.600;2023-05-07T09:35:05;12.70;;;7.90;;
40244;SDS011;25963;42.694;23.600;2023-05-07T09:37:39;4.55;;;3.65;;
40244;SDS011;25963;42.694;23.600;2023-05-07T09:40:06;7.20;;;4.82;;
40244;SDS011;25963;42.694;23.600;2023-05-07T09:42:32;4.47;;;3.53;;
40244;SDS011;25963;42.694;23.600;2023-05-07T09:44:58;3.97;;;3.10;;
40244;SDS011;25963;42.694;23.600;2023-05-07T09:47:24;7.57;;;4.72;;
40244;SDS011;25963;42.694;23.600;2023-05-07T09:49:54;6.85;;;4.10;;
40244;SDS011;25963;42.694;23.600;2023-05-07T09:52:23;5.27;;;3.90;;
40244;SDS011;25963;42.694;23.600;2023-05-07T09:54:48;17.58;;;4.75;;
40244;SDS011;25963;42.694;23.600;2023-05-07T09:57:16;5.15;;;4.38;;
40244;SDS011;25963;42.694;23.600;2023-05-07T09:59:44;6.50;;;4.80;;
40244;SDS011;25963;42.694;23.600;2023-05-07T10:02:11;5.45;;;3.38;;
40244;SDS011;25963;42.694;23.600;2023-05-07T10:04:39;6.93;;;3.83;;
40244;SDS011;25963;42.694;23.600;2023-05-07T10:07:05;3.75;;;2.75;;
40244;SDS011;25963;42.694;23.600;2023-05-07T10:09:32;5.57;;;3.42;;
40244;SDS011;25963;42.694;23.600;2023-05-07T10:12:03;5.90;;;3.40;;
40244;SDS011;25963;42.694;23.600;2023-05-07T10:14:30;6.32;;;4.28;;
40244;SDS011;25963;42.694;23.600;2023-05-07T10:16:55;4.75;;;3.65;;
40244;SDS011;25963;42.694;23.600;2023-05-07T10:19:22;5.47;;;3.42;;
40244;SDS011;25963;42.694;23.600;2023-05-07T10:21:51;3.33;;;3.03;;
40244;SDS011;25963;42.694;23.600;2023-05-07T10:24:25;3.78;;;3.00;;
40244;SDS011;25963;42.694;23.600;2023-05-07T10:26:53;4.95;;;3.30;;
40244;SDS011;25963;42.694;23.600;2023-05-07T10:29:33;4.68;;;3.10;;
40244;SDS011;25963;42.694;23.600;2023-05-07T10:34:41;5.53;;;3.50;;
40244;SDS011;25963;42.694;23.600;2023-05-07T10:37:10;3.13;;;2.83;;
40244;SDS011;25963;42.694;23.600;2023-05-07T10:39:37;4.38;;;2.88;;
40244;SDS011;25963;42.694;23.600;2023-05-07T10:42:12;4.57;;;2.70;;
40244;SDS011;25963;42.694;23.600;2023-05-07T10:44:38;3.35;;;2.92;;
40244;SDS011;25963;42.694;23.600;2023-05-07T10:47:08;3.42;;;2.88;;
40244;SDS011;25963;42.694;23.600;2023-05-07T10:54:45;3.20;;;2.80;;
40244;SDS011;25963;42.694;23.600;2023-05-07T11:05:29;3.78;;;3.47;;
40244;SDS011;25963;42.694;23.600;2023-05-07T11:08:02;8.30;;;3.70;;
40244;SDS011;25963;42.694;23.600;2023-05-07T11:10:48;4.47;;;3.08;;
40244;SDS011;25963;42.694;23.600;2023-05-07T11:16:22;7.13;;;3.13;;
40244;SDS011;25963;42.694;23.600;2023-05-07T11:18:49;4.38;;;2.53;;
40244;SDS011;25963;42.694;23.600;2023-05-07T11:21:37;3.13;;;2.83;;
40244;SDS011;25963;42.694;23.600;2023-05-07T11:24:05;6.82;;;2.85;;
40244;SDS011;25963;42.694;23.600;2023-05-07T11:26:50;3.13;;;2.75;;
40244;SDS011;25963;42.694;23.600;2023-05-07T11:29:17;8.38;;;4.40;;
40244;SDS011;25963;42.694;23.600;2023-05-07T11:31:44;4.38;;;3.45;;
40244;SDS011;25963;42.694;23.600;2023-05-07T11:34:14;4.32;;;3.25;;
40244;SDS011;25963;42.694;23.600;2023-05-07T11:36:45;5.20;;;3.35;;
40244;SDS011;25963;42.694;23.600;2023-05-07T11:39:25;3.88;;;3.38;;
40244;SDS011;25963;42.694;23.600;2023-05-07T11:41:52;6.90;;;4.43;;
40244;SDS011;25963;42.694;23.600;2023-05-07T11:44:17;14.93;;;4.90;;
40244;SDS011;25963;42.694;23.600;2023-05-07T11:46:43;7.38;;;3.40;;
40244;SDS011;25963;42.694;23.600;2023-05-07T11:49:10;4.00;;;3.15;;
40244;SDS011;25963;42.694;23.600;2023-05-07T11:51:35;3.20;;;2.90;;
40244;SDS011;25963;42.694;23.600;2023-05-07T11:54:03;4.88;;;3.20;;
40244;SDS011;25963;42.694;23.600;2023-05-07T11:56:29;5.32;;;3.10;;
40244;SDS011;25963;42.694;23.600;2023-05-07T11:58:58;3.78;;;3.17;;
40244;SDS011;25963;42.694;23.600;2023-05-07T12:01:24;3.67;;;3.15;;
40244;SDS011;25963;42.694;23.600;2023-05-07T12:03:50;5.82;;;4.90;;
40244;SDS011;25963;42.694;23.600;2023-05-07T12:06:15;4.35;;;3.42;;
40244;SDS011;25963;42.694;23.600;2023-05-07T12:08:42;4.70;;;3.58;;
40244;SDS011;25963;42.694;23.600;2023-05-07T12:11:09;4.63;;;3.85;;
40244;SDS011;25963;42.694;23.600;2023-05-07T12:13:41;5.70;;;3.17;;
40244;SDS011;25963;42.694;23.600;2023-05-07T12:16:07;4.43;;;3.53;;
40244;SDS011;25963;42.694;23.600;2023-05-07T12:18:33;4.10;;;3.30;;
40244;SDS011;25963;42.694;23.600;2023-05-07T12:20:59;7.70;;;3.92;;
40244;SDS011;25963;42.694;23.600;2023-05-07T12:23:25;5.70;;;3.83;;
40244;SDS011;25963;42.694;23.600;2023-05-07T12:25:50;7.68;;;3.88;;
40244;SDS011;25963;42.694;23.600;2023-05-07T12:28:17;4.53;;;3.38;;
40244;SDS011;25963;42.694;23.600;2023-05-07T12:30:44;5.57;;;4.55;;
40244;SDS011;25963;42.694;23.600;2023-05-07T12:33:11;8.35;;;5.20;;
40244;SDS011;25963;42.694;23.600;2023-05-07T12:35:40;5.53;;;4.47;;
40244;SDS011;25963;42.694;23.600;2023-05-07T12:38:10;8.68;;;6.00;;
40244;SDS011;25963;42.694;23.600;2023-05-07T12:43:02;7.28;;;4.10;;
40244;SDS011;25963;42.694;23.600;2023-05-07T12:45:28;4.07;;;3.67;;
40244;SDS011;25963;42.694;23.600;2023-05-07T12:47:53;3.90;;;3.60;;
40244;SDS011;25963;42.694;23.600;2023-05-07T12:50:19;6.68;;;4.75;;
40244;SDS011;25963;42.694;23.600;2023-05-07T12:52:47;6.25;;;3.97;;
40244;SDS011;25963;42.694;23.600;2023-05-07T12:55:16;4.70;;;4.30;;
40244;SDS011;25963;42.694;23.600;2023-05-07T12:57:42;4.25;;;3.80;;
40244;SDS011;25963;42.694;23.600;2023-05-07T13:00:12;6.55;;;4.10;;
40244;SDS011;25963;42.694;23.600;2023-05-07T13:02:39;6.00;;;4.22;;
40244;SDS011;25963;42.694;23.600;2023-05-07T13:05:06;4.35;;;3.70;;
40244;SDS011;25963;42.694;23.600;2023-05-07T13:07:32;5.45;;;4.22;;
40244;SDS011;25963;42.694;23.600;2023-05-07T13:09:58;6.30;;;3.75;;
40244;SDS011;25963;42.694;23.600;2023-05-07T13:12:23;5.63;;;4.13;;
40244;SDS011;25963;42.694;23.600;2023-05-07T13:14:49;5.80;;;5.05;;
40244;SDS011;25963;42.694;23.600;2023-05-07T13:17:14;4.93;;;4.40;;
40244;SDS011;25963;42.694;23.600;2023-05-07T13:19:40;4.85;;;4.43;;
40244;SDS011;25963;42.694;23.600;2023-05-07T13:22:06;5.70;;;4.10;;
40244;SDS011;25963;42.694;23.600;2023-05-07T13:24:31;4.30;;;3.90;;
40244;SDS011;25963;42.694;23.600;2023-05-07T13:26:56;4.68;;;4.28;;
40244;SDS011;25963;42.694;23.600;2023-05-07T13:29:22;6.22;;;3.88;;
40244;SDS011;25963;42.694;23.600;2023-05-07T13:31:54;7.63;;;3.97;;
40244;SDS011;25963;42.694;23.600;2023-05-07T13:34:23;5.85;;;3.80;;
40244;SDS011;25963;42.694;23.600;2023-05-07T13:36:49;4.70;;;4.20;;
40244;SDS011;25963;42.694;23.600;2023-05-07T13:39:14;5.70;;;3.92;;
40244;SDS011;25963;42.694;23.600;2023-05-07T13:41:40;5.72;;;4.00;;
40244;SDS011;25963;42.694;23.600;2023-05-07T13:44:05;6.00;;;3.65;;
40244;SDS011;25963;42.694;23.600;2023-05-07T13:46:31;3.83;;;3.42;;
40244;SDS011;25963;42.694;23.600;2023-05-07T13:48:56;6.00;;;3.58;;
40244;SDS011;25963;42.694;23.600;2023-05-07T13:51:22;5.63;;;3.47;;
40244;SDS011;25963;42.694;23.600;2023-05-07T13:53:48;6.88;;;4.20;;
40244;SDS011;25963;42.694;23.600;2023-05-07T13:56:13;7.28;;;4.22;;
40244;SDS011;25963;42.694;23.600;2023-05-07T13:58:39;6.10;;;3.80;;
40244;SDS011;25963;42.694;23.600;2023-05-07T14:01:05;4.47;;;4.07;;
40244;SDS011;25963;42.694;23.600;2023-05-07T14:03:31;8.27;;;5.82;;
40244;SDS011;25963;42.694;23.600;2023-05-07T14:06:00;6.00;;;4.32;;
40244;SDS011;25963;42.694;23.600;2023-05-07T14:08:26;4.95;;;2.97;;
40244;SDS011;25963;42.694;23.600;2023-05-07T14:10:52;4.10;;;3.70;;
40244;SDS011;25963;42.694;23.600;2023-05-07T14:13:18;3.90;;;3.25;;
40244;SDS011;25963;42.694;23.600;2023-05-07T14:15:43;5.72;;;3.45;;
40244;SDS011;25963;42.694;23.600;2023-05-07T14:18:11;4.78;;;2.72;;
40244;SDS011;25963;42.694;23.600;2023-05-07T14:20:40;6.82;;;3.00;;
40244;SDS011;25963;42.694;23.600;2023-05-07T14:23:08;4.00;;;3.00;;
40244;SDS011;25963;42.694;23.600;2023-05-07T14:25:33;6.38;;;3.13;;
40244;SDS011;25963;42.694;23.600;2023-05-07T14:27:59;4.70;;;2.80;;
40244;SDS011;25963;42.694;23.600;2023-05-07T14:30:25;5.57;;;3.22;;
40244;SDS011;25963;42.694;23.600;2023-05-07T14:32:50;4.38;;;2.70;;
40244;SDS011;25963;42.694;23.600;2023-05-07T14:35:16;7.50;;;2.75;;
40244;SDS011;25963;42.694;23.600;2023-05-07T14:37:42;4.80;;;2.72;;
40244;SDS011;25963;42.694;23.600;2023-05-07T14:40:08;4.13;;;2.85;;
40244;SDS011;25963;42.694;23.600;2023-05-07T14:42:34;7.18;;;3.17;;
40244;SDS011;25963;42.694;23.600;2023-05-07T14:45:00;3.58;;;3.15;;
40244;SDS011;25963;42.694;23.600;2023-05-07T14:47:25;4.13;;;2.78;;
40244;SDS011;25963;42.694;23.600;2023-05-07T14:49:50;4.20;;;3.75;;
40244;SDS011;25963;42.694;23.600;2023-05-07T14:52:16;3.88;;;3.30;;